sensor_id;sensor_type;location;lat;lon;timestamp;pressure;altitude;pressure_sealevel;temperature;humidity
78843;BME280;70542;53.774;-0.352;2023-06-14T00:02:07;102010;;;17;42
78843;BME280;70542;53.774;-0.352;2023-06-14T00:07:46;102010;;;17;42
78843;BME280;70542;53.774;-0.352;2023-06-14T00:13:25;102000;;;17;42
78843;BME280;70542;53.774;-0.352;2023-06-14T00:19:03;102000;;;17;41
78843;BME280;70542;53.774;-0.352;2023-06-14T00:24:42;102000;;;17;41
78843;BME280;70542;53.774;-0.352;2023-06-14T00:30:20;102010;;;17;41
78843;BME280;70542;53.774;-0.352;2023-06-14T00:35:59;102010;;;17;41
78843;BME280;70542;53.774;-0.352;2023-06-14T00:41:37;102020;;;17;41
78843;BME280;70542;53.774;-0.352;2023-06-14T00:47:16;102020;;;17;40
78843;BME280;70542;53.774;-0.352;2023-06-14T00:52:54;102020;;;17;40
78843;BME280;70542;53.774;-0.352;2023-06-14T00:58:33;102010;;;17;41
78843;BME280;70542;53.774;-0.352;2023-06-14T01:04:15;102010;;;16;42
78843;BME280;70542;53.774;-0.352;2023-06-14T01:10:07;102010;;;17;42
78843;BME280;70542;53.774;-0.352;2023-06-14T01:15:50;102010;;;17;40
78843;BME280;70542;53.774;-0.352;2023-06-14T01:21:29;102010;;;17;39
78843;BME280;70542;53.774;-0.352;2023-06-14T01:27:08;102010;;;17;39
78843;BME280;70542;53.774;-0.352;2023-06-14T01:32:47;102010;;;17;40
78843;BME280;70542;53.774;-0.352;2023-06-14T01:38:27;102010;;;17;39
78843;BME280;70542;53.774;-0.352;2023-06-14T01:44:06;102010;;;17;39
78843;BME280;70542;53.774;-0.352;2023-06-14T01:49:46;102020;;;17;39
78843;BME280;70542;53.774;-0.352;2023-06-14T01:55:25;102020;;;17;40
78843;BME280;70542;53.774;-0.352;2023-06-14T02:01:03;102010;;;17;39
78843;BME280;70542;53.774;-0.352;2023-06-14T02:06:42;102010;;;17;39
78843;BME280;70542;53.774;-0.352;2023-06-14T02:12:20;102000;;;16;40
78843;BME280;70542;53.774;-0.352;2023-06-14T02:18:00;102000;;;17;40
78843;BME280;70542;53.774;-0.352;2023-06-14T02:23:43;102010;;;14;44
78843;BME280;70542;53.774;-0.352;2023-06-14T02:29:29;102010;;;12;50
78843;BME280;70542;53.774;-0.352;2023-06-14T02:35:11;102000;;;13;50
78843;BME280;70542;53.774;-0.352;2023-06-14T02:41:12;102000;;;13;50
78843;BME280;70542;53.774;-0.352;2023-06-14T02:47:13;102000;;;12;52
78843;BME280;70542;53.774;-0.352;2023-06-14T02:52:55;102000;;;13;48
78843;BME280;70542;53.774;-0.352;2023-06-14T02:58:37;102000;;;13;47
78843;BME280;70542;53.774;-0.352;2023-06-14T03:04:20;102000;;;14;45
78843;BME280;70542;53.774;-0.352;2023-06-14T03:10:09;102000;;;14;45
78843;BME280;70542;53.774;-0.352;2023-06-14T03:16:08;102010;;;12;49
78843;BME280;70542;53.774;-0.352;2023-06-14T03:21:58;102010;;;12;48
78843;BME280;70542;53.774;-0.352;2023-06-14T03:27:42;102010;;;13;49
78843;BME280;70542;53.774;-0.352;2023-06-14T03:33:33;102000;;;14;46
78843;BME280;70542;53.774;-0.352;2023-06-14T03:39:19;102010;;;15;43
78843;BME280;70542;53.774;-0.352;2023-06-14T03:45:09;102010;;;15;43
78843;BME280;70542;53.774;-0.352;2023-06-14T03:51:15;102020;;;14;44
78843;BME280;70542;53.774;-0.352;2023-06-14T03:56:57;102020;;;16;42
78843;BME280;70542;53.774;-0.352;2023-06-14T04:02:47;102020;;;13;47
78843;BME280;70542;53.774;-0.352;2023-06-14T04:08:48;102010;;;15;44
78843;BME280;70542;53.774;-0.352;2023-06-14T04:14:32;102010;;;16;42
78843;BME280;70542;53.774;-0.352;2023-06-14T04:20:23;102010;;;16;42
78843;BME280;70542;53.774;-0.352;2023-06-14T04:26:05;102000;;;16;41
78843;BME280;70542;53.774;-0.352;2023-06-14T04:31:55;102000;;;16;42
78843;BME280;70542;53.774;-0.352;2023-06-14T04:37:41;102000;;;16;42
78843;BME280;70542;53.774;-0.352;2023-06-14T04:43:23;102000;;;16;42
78843;BME280;70542;53.774;-0.352;2023-06-14T04:49:02;102010;;;16;42
78843;BME280;70542;53.774;-0.352;2023-06-14T04:54:48;102010;;;16;42
78843;BME280;70542;53.774;-0.352;2023-06-14T05:00:32;102010;;;15;44
78843;BME280;70542;53.774;-0.352;2023-06-14T05:06:11;102010;;;16;44
78843;BME280;70542;53.774;-0.352;2023-06-14T05:11:49;102020;;;15;46
78843;BME280;70542;53.774;-0.352;2023-06-14T05:17:28;102020;;;14;48
78843;BME280;70542;53.774;-0.352;2023-06-14T05:23:11;102020;;;14;49
78843;BME280;70542;53.774;-0.352;2023-06-14T05:28:50;102020;;;15;47
78843;BME280;70542;53.774;-0.352;2023-06-14T05:34:28;102020;;;15;48
78843;BME280;70542;53.774;-0.352;2023-06-14T05:40:08;102030;;;16;46
78843;BME280;70542;53.774;-0.352;2023-06-14T05:45:47;102030;;;16;46
78843;BME280;70542;53.774;-0.352;2023-06-14T05:51:29;102030;;;16;47
78843;BME280;70542;53.774;-0.352;2023-06-14T05:57:08;102020;;;17;46
78843;BME280;70542;53.774;-0.352;2023-06-14T06:02:47;102030;;;17;46
78843;BME280;70542;53.774;-0.352;2023-06-14T06:08:26;102040;;;17;44
78843;BME280;70542;53.774;-0.352;2023-06-14T06:14:04;102040;;;18;43
78843;BME280;70542;53.774;-0.352;2023-06-14T06:19:43;102050;;;18;43
78843;BME280;70542;53.774;-0.352;2023-06-14T06:25:22;102060;;;18;43
78843;BME280;70542;53.774;-0.352;2023-06-14T06:31:01;102050;;;17;44
78843;BME280;70542;53.774;-0.352;2023-06-14T06:36:39;102060;;;18;43
78843;BME280;70542;53.774;-0.352;2023-06-14T06:42:18;102070;;;18;44
78843;BME280;70542;53.774;-0.352;2023-06-14T06:47:56;102070;;;17;44
78843;BME280;70542;53.774;-0.352;2023-06-14T06:53:35;102070;;;18;42
78843;BME280;70542;53.774;-0.352;2023-06-14T06:59:14;102070;;;19;41
78843;BME280;70542;53.774;-0.352;2023-06-14T07:04:52;102070;;;18;42
78843;BME280;70542;53.774;-0.352;2023-06-14T07:10:31;102070;;;18;41
78843;BME280;70542;53.774;-0.352;2023-06-14T07:16:10;102080;;;18;42
78843;BME280;70542;53.774;-0.352;2023-06-14T07:21:49;102080;;;18;42
78843;BME280;70542;53.774;-0.352;2023-06-14T07:27:27;102080;;;18;40
78843;BME280;70542;53.774;-0.352;2023-06-14T07:33:06;102080;;;20;39
78843;BME280;70542;53.774;-0.352;2023-06-14T07:38:46;102080;;;20;40
78843;BME280;70542;53.774;-0.352;2023-06-14T07:44:33;102080;;;19;39
78843;BME280;70542;53.774;-0.352;2023-06-14T07:50:12;102090;;;18;41
78843;BME280;70542;53.774;-0.352;2023-06-14T07:55:50;102090;;;19;40
78843;BME280;70542;53.774;-0.352;2023-06-14T08:01:29;102090;;;20;38
78843;BME280;70542;53.774;-0.352;2023-06-14T08:07:08;102100;;;19;39
78843;BME280;70542;53.774;-0.352;2023-06-14T08:12:47;102100;;;20;37
78843;BME280;70542;53.774;-0.352;2023-06-14T08:18:25;102110;;;20;36
78843;BME280;70542;53.774;-0.352;2023-06-14T08:24:05;102100;;;20;37
78843;BME280;70542;53.774;-0.352;2023-06-14T08:29:43;102100;;;20;37
78843;BME280;70542;53.774;-0.352;2023-06-14T08:35:22;102110;;;20;36
78843;BME280;70542;53.774;-0.352;2023-06-14T08:41:03;102100;;;21;34
78843;BME280;70542;53.774;-0.352;2023-06-14T08:46:43;102110;;;19;37
78843;BME280;70542;53.774;-0.352;2023-06-14T08:52:23;102100;;;19;37
78843;BME280;70542;53.774;-0.352;2023-06-14T08:58:03;102110;;;21;35
78843;BME280;70542;53.774;-0.352;2023-06-14T09:03:42;102120;;;20;36
78843;BME280;70542;53.774;-0.352;2023-06-14T09:09:21;102120;;;20;36
78843;BME280;70542;53.774;-0.352;2023-06-14T09:15:00;102120;;;20;36
78843;BME280;70542;53.774;-0.352;2023-06-14T09:20:40;102110;;;20;35
78843;BME280;70542;53.774;-0.352;2023-06-14T09:26:19;102120;;;20;36
78843;BME280;70542;53.774;-0.352;2023-06-14T09:31:58;102120;;;21;35
78843;BME280;70542;53.774;-0.352;2023-06-14T09:37:37;102120;;;22;34
78843;BME280;70542;53.774;-0.352;2023-06-14T09:43:17;102120;;;22;33
78843;BME280;70542;53.774;-0.352;2023-06-14T09:48:57;102120;;;20;36
78843;BME280;70542;53.774;-0.352;2023-06-14T09:54:41;102120;;;21;34
78843;BME280;70542;53.774;-0.352;2023-06-14T10:00:21;102120;;;21;35
78843;BME280;70542;53.774;-0.352;2023-06-14T10:06:07;102120;;;21;34
78843;BME280;70542;53.774;-0.352;2023-06-14T10:11:47;102120;;;21;32
78843;BME280;70542;53.774;-0.352;2023-06-14T10:17:33;102120;;;21;34
78843;BME280;70542;53.774;-0.352;2023-06-14T10:23:16;102120;;;21;33
78843;BME280;70542;53.774;-0.352;2023-06-14T10:28:58;102120;;;21;33
78843;BME280;70542;53.774;-0.352;2023-06-14T10:34:38;102120;;;22;33
78843;BME280;70542;53.774;-0.352;2023-06-14T10:40:30;102120;;;22;33
78843;BME280;70542;53.774;-0.352;2023-06-14T10:46:14;102110;;;21;32
78843;BME280;70542;53.774;-0.352;2023-06-14T10:51:57;102120;;;21;33
78843;BME280;70542;53.774;-0.352;2023-06-14T10:57:37;102120;;;21;33
78843;BME280;70542;53.774;-0.352;2023-06-14T11:03:35;102110;;;22;33
78843;BME280;70542;53.774;-0.352;2023-06-14T11:09:31;102110;;;22;32
78843;BME280;70542;53.774;-0.352;2023-06-14T11:15:11;102110;;;22;31
78843;BME280;70542;53.774;-0.352;2023-06-14T11:20:50;102120;;;21;31
78843;BME280;70542;53.774;-0.352;2023-06-14T11:26:31;102110;;;22;32
78843;BME280;70542;53.774;-0.352;2023-06-14T11:32:09;102110;;;22;31
78843;BME280;70542;53.774;-0.352;2023-06-14T11:37:48;102120;;;21;32
78843;BME280;70542;53.774;-0.352;2023-06-14T11:43:28;102110;;;22;31
78843;BME280;70542;53.774;-0.352;2023-06-14T11:49:07;102120;;;20;33
78843;BME280;70542;53.774;-0.352;2023-06-14T11:54:48;102110;;;19;33
78843;BME280;70542;53.774;-0.352;2023-06-14T12:00:26;102110;;;19;35
78843;BME280;70542;53.774;-0.352;2023-06-14T12:06:06;102110;;;20;33
78843;BME280;70542;53.774;-0.352;2023-06-14T12:11:45;102110;;;19;34
78843;BME280;70542;53.774;-0.352;2023-06-14T12:17:24;102110;;;19;34
78843;BME280;70542;53.774;-0.352;2023-06-14T12:23:04;102100;;;20;33
78843;BME280;70542;53.774;-0.352;2023-06-14T12:28:43;102100;;;21;32
78843;BME280;70542;53.774;-0.352;2023-06-14T12:34:22;102110;;;20;33
78843;BME280;70542;53.774;-0.352;2023-06-14T12:40:01;102120;;;21;31
78843;BME280;70542;53.774;-0.352;2023-06-14T12:45:40;102120;;;20;31
78843;BME280;70542;53.774;-0.352;2023-06-14T12:51:19;102130;;;20;32
78843;BME280;70542;53.774;-0.352;2023-06-14T12:56:58;102130;;;20;32
78843;BME280;70542;53.774;-0.352;2023-06-14T13:02:36;102130;;;21;32
78843;BME280;70542;53.774;-0.352;2023-06-14T13:08:15;102130;;;20;33
78843;BME280;70542;53.774;-0.352;2023-06-14T13:13:53;102130;;;19;32
78843;BME280;70542;53.774;-0.352;2023-06-14T13:19:32;102140;;;21;32
78843;BME280;70542;53.774;-0.352;2023-06-14T13:25:11;102130;;;22;31
78843;BME280;70542;53.774;-0.352;2023-06-14T13:30:49;102120;;;23;30
78843;BME280;70542;53.774;-0.352;2023-06-14T13:36:28;102120;;;22;30
78843;BME280;70542;53.774;-0.352;2023-06-14T13:42:07;102120;;;22;32
78843;BME280;70542;53.774;-0.352;2023-06-14T13:47:46;102130;;;23;30
78843;BME280;70542;53.774;-0.352;2023-06-14T13:53:24;102120;;;23;29
78843;BME280;70542;53.774;-0.352;2023-06-14T13:59:03;102120;;;23;30
78843;BME280;70542;53.774;-0.352;2023-06-14T14:04:42;102120;;;21;32
78843;BME280;70542;53.774;-0.352;2023-06-14T14:10:28;102120;;;22;31
78843;BME280;70542;53.774;-0.352;2023-06-14T14:16:06;102120;;;23;31
78843;BME280;70542;53.774;-0.352;2023-06-14T14:21:45;102120;;;23;31
78843;BME280;70542;53.774;-0.352;2023-06-14T14:27:24;102130;;;23;32
78843;BME280;70542;53.774;-0.352;2023-06-14T14:33:02;102120;;;22;32
78843;BME280;70542;53.774;-0.352;2023-06-14T14:38:41;102120;;;22;33
78843;BME280;70542;53.774;-0.352;2023-06-14T14:44:20;102120;;;22;34
78843;BME280;70542;53.774;-0.352;2023-06-14T14:49:59;102120;;;22;34
78843;BME280;70542;53.774;-0.352;2023-06-14T14:55:37;102120;;;23;32
78843;BME280;70542;53.774;-0.352;2023-06-14T15:01:16;102120;;;22;34
78843;BME280;70542;53.774;-0.352;2023-06-14T15:06:55;102110;;;22;35
78843;BME280;70542;53.774;-0.352;2023-06-14T15:12:34;102110;;;22;35
78843;BME280;70542;53.774;-0.352;2023-06-14T15:18:13;102120;;;22;34
78843;BME280;70542;53.774;-0.352;2023-06-14T15:23:51;102110;;;22;35
78843;BME280;70542;53.774;-0.352;2023-06-14T15:29:30;102100;;;22;33
78843;BME280;70542;53.774;-0.352;2023-06-14T15:35:09;102110;;;22;35
78843;BME280;70542;53.774;-0.352;2023-06-14T15:40:47;102110;;;22;34
78843;BME280;70542;53.774;-0.352;2023-06-14T15:46:26;102110;;;23;33
78843;BME280;70542;53.774;-0.352;2023-06-14T15:52:05;102100;;;23;33
78843;BME280;70542;53.774;-0.352;2023-06-14T15:57:48;102110;;;23;33
78843;BME280;70542;53.774;-0.352;2023-06-14T16:03:26;102110;;;22;35
78843;BME280;70542;53.774;-0.352;2023-06-14T16:09:05;102120;;;22;35
78843;BME280;70542;53.774;-0.352;2023-06-14T16:14:43;102110;;;22;33
78843;BME280;70542;53.774;-0.352;2023-06-14T16:20:22;102110;;;22;34
78843;BME280;70542;53.774;-0.352;2023-06-14T16:26:00;102100;;;22;34
78843;BME280;70542;53.774;-0.352;2023-06-14T16:31:39;102110;;;23;34
78843;BME280;70542;53.774;-0.352;2023-06-14T16:37:18;102110;;;23;33
78843;BME280;70542;53.774;-0.352;2023-06-14T16:42:56;102110;;;23;33
78843;BME280;70542;53.774;-0.352;2023-06-14T16:48:35;102110;;;24;31
78843;BME280;70542;53.774;-0.352;2023-06-14T16:54:14;102120;;;23;31
78843;BME280;70542;53.774;-0.352;2023-06-14T16:59:52;102120;;;24;30
78843;BME280;70542;53.774;-0.352;2023-06-14T17:05:31;102120;;;24;30
78843;BME280;70542;53.774;-0.352;2023-06-14T17:11:10;102120;;;25;30
78843;BME280;70542;53.774;-0.352;2023-06-14T17:16:49;102120;;;23;32
78843;BME280;70542;53.774;-0.352;2023-06-14T17:22:28;102120;;;24;31
78843;BME280;70542;53.774;-0.352;2023-06-14T17:28:06;102130;;;24;32
78843;BME280;70542;53.774;-0.352;2023-06-14T17:33:46;102120;;;23;32
78843;BME280;70542;53.774;-0.352;2023-06-14T17:39:25;102120;;;23;32
78843;BME280;70542;53.774;-0.352;2023-06-14T17:45:05;102120;;;22;35
78843;BME280;70542;53.774;-0.352;2023-06-14T17:50:43;102120;;;24;33
78843;BME280;70542;53.774;-0.352;2023-06-14T17:56:22;102130;;;22;34
78843;BME280;70542;53.774;-0.352;2023-06-14T18:02:01;102130;;;24;33
78843;BME280;70542;53.774;-0.352;2023-06-14T18:07:39;102140;;;24;32
78843;BME280;70542;53.774;-0.352;2023-06-14T18:13:18;102140;;;22;35
78843;BME280;70542;53.774;-0.352;2023-06-14T18:18:56;102140;;;23;32
78843;BME280;70542;53.774;-0.352;2023-06-14T18:24:35;102140;;;24;33
78843;BME280;70542;53.774;-0.352;2023-06-14T18:30:14;102150;;;22;35
78843;BME280;70542;53.774;-0.352;2023-06-14T18:35:53;102150;;;24;33
78843;BME280;70542;53.774;-0.352;2023-06-14T18:41:32;102150;;;22;36
78843;BME280;70542;53.774;-0.352;2023-06-14T18:47:12;102170;;;22;36
78843;BME280;70542;53.774;-0.352;2023-06-14T18:52:52;102170;;;23;34
78843;BME280;70542;53.774;-0.352;2023-06-14T18:58:31;102170;;;21;39
78843;BME280;70542;53.774;-0.352;2023-06-14T19:04:09;102170;;;20;38
78843;BME280;70542;53.774;-0.352;2023-06-14T19:09:48;102170;;;21;38
78843;BME280;70542;53.774;-0.352;2023-06-14T19:15:27;102180;;;19;41
78843;BME280;70542;53.774;-0.352;2023-06-14T19:21:05;102180;;;20;41
78843;BME280;70542;53.774;-0.352;2023-06-14T19:26:44;102180;;;20;41
78843;BME280;70542;53.774;-0.352;2023-06-14T19:32:23;102180;;;20;42
78843;BME280;70542;53.774;-0.352;2023-06-14T19:38:02;102190;;;19;44
78843;BME280;70542;53.774;-0.352;2023-06-14T19:43:41;102180;;;17;47
78843;BME280;70542;53.774;-0.352;2023-06-14T19:49:20;102190;;;17;47
78843;BME280;70542;53.774;-0.352;2023-06-14T19:54:58;102200;;;17;49
78843;BME280;70542;53.774;-0.352;2023-06-14T20:00:37;102200;;;19;44
78843;BME280;70542;53.774;-0.352;2023-06-14T20:06:16;102210;;;18;46
78843;BME280;70542;53.774;-0.352;2023-06-14T20:11:56;102210;;;18;47
78843;BME280;70542;53.774;-0.352;2023-06-14T20:17:40;102210;;;17;50
78843;BME280;70542;53.774;-0.352;2023-06-14T20:23:19;102220;;;16;51
78843;BME280;70542;53.774;-0.352;2023-06-14T20:28:58;102220;;;16;51
78843;BME280;70542;53.774;-0.352;2023-06-14T20:34:37;102220;;;16;51
78843;BME280;70542;53.774;-0.352;2023-06-14T20:40:19;102220;;;16;51
78843;BME280;70542;53.774;-0.352;2023-06-14T20:45:58;102230;;;19;47
78843;BME280;70542;53.774;-0.352;2023-06-14T20:51:37;102240;;;17;50
78843;BME280;70542;53.774;-0.352;2023-06-14T20:57:16;102240;;;18;48
78843;BME280;70542;53.774;-0.352;2023-06-14T21:02:54;102240;;;19;44
78843;BME280;70542;53.774;-0.352;2023-06-14T21:08:33;102250;;;19;44
78843;BME280;70542;53.774;-0.352;2023-06-14T21:14:12;102250;;;15;54
78843;BME280;70542;53.774;-0.352;2023-06-14T21:19:52;102250;;;16;51
78843;BME280;70542;53.774;-0.352;2023-06-14T21:25:31;102260;;;16;50
78843;BME280;70542;53.774;-0.352;2023-06-14T21:31:17;102260;;;18;47
78843;BME280;70542;53.774;-0.352;2023-06-14T21:36:56;102260;;;17;47
78843;BME280;70542;53.774;-0.352;2023-06-14T21:42:35;102260;;;17;49
78843;BME280;70542;53.774;-0.352;2023-06-14T21:48:14;102250;;;20;42
78843;BME280;70542;53.774;-0.352;2023-06-14T21:53:53;102260;;;18;47
78843;BME280;70542;53.774;-0.352;2023-06-14T21:59:31;102260;;;17;47
78843;BME280;70542;53.774;-0.352;2023-06-14T22:05:10;102260;;;18;47
78843;BME280;70542;53.774;-0.352;2023-06-14T22:10:49;102260;;;17;49
78843;BME280;70542;53.774;-0.352;2023-06-14T22:16:28;102260;;;20;42
78843;BME280;70542;53.774;-0.352;2023-06-14T22:22:07;102260;;;18;45
78843;BME280;70542;53.774;-0.352;2023-06-14T22:27:46;102260;;;19;43
78843;BME280;70542;53.774;-0.352;2023-06-14T22:33:25;102270;;;18;46
78843;BME280;70542;53.774;-0.352;2023-06-14T22:39:04;102270;;;20;42
78843;BME280;70542;53.774;-0.352;2023-06-14T22:44:43;102280;;;21;40
78843;BME280;70542;53.774;-0.352;2023-06-14T22:50:22;102290;;;20;42
78843;BME280;70542;53.774;-0.352;2023-06-14T22:56:01;102280;;;19;42
78843;BME280;70542;53.774;-0.352;2023-06-14T23:01:40;102280;;;19;44
78843;BME280;70542;53.774;-0.352;2023-06-14T23:07:18;102280;;;18;46
78843;BME280;70542;53.774;-0.352;2023-06-14T23:12:57;102280;;;20;42
78843;BME280;70542;53.774;-0.352;2023-06-14T23:18:36;102280;;;20;43
78843;BME280;70542;53.774;-0.352;2023-06-14T23:24:14;102290;;;18;46
78843;BME280;70542;53.774;-0.352;2023-06-14T23:29:53;102280;;;18;46
78843;BME280;70542;53.774;-0.352;2023-06-14T23:35:32;102280;;;19;45
78843;BME280;70542;53.774;-0.352;2023-06-14T23:41:11;102280;;;19;45
78843;BME280;70542;53.774;-0.352;2023-06-14T23:46:51;102270;;;20;44
78843;BME280;70542;53.774;-0.352;2023-06-14T23:52:30;102280;;;16;50
78843;BME280;70542;53.774;-0.352;2023-06-14T23:58:09;102270;;;17;48
